sensor_id;sensor_type;location;lat;lon;timestamp;temperature;humidity
30385;DHT22;17181;51.002;4.096;2022-11-24T00:00:33;10.50;99.90
30385;DHT22;17181;51.002;4.096;2022-11-24T00:02:59;10.40;99.90
30385;DHT22;17181;51.002;4.096;2022-11-24T00:05:25;10.50;99.90
30385;DHT22;17181;51.002;4.096;2022-11-24T00:07:51;10.50;99.90
30385;DHT22;17181;51.002;4.096;2022-11-24T00:10:17;10.50;99.90
30385;DHT22;17181;51.002;4.096;2022-11-24T00:12:43;10.50;99.90
30385;DHT22;17181;51.002;4.096;2022-11-24T00:15:09;10.50;99.90
30385;DHT22;17181;51.002;4.096;2022-11-24T00:17:34;10.50;99.90
30385;DHT22;17181;51.002;4.096;2022-11-24T00:20:00;10.50;99.90
30385;DHT22;17181;51.002;4.096;2022-11-24T00:22:26;10.50;99.90
30385;DHT22;17181;51.002;4.096;2022-11-24T00:24:51;10.60;99.90
30385;DHT22;17181;51.002;4.096;2022-11-24T00:27:17;10.60;99.90
30385;DHT22;17181;51.002;4.096;2022-11-24T00:29:43;10.60;99.90
30385;DHT22;17181;51.002;4.096;2022-11-24T00:32:09;10.60;99.90
30385;DHT22;17181;51.002;4.096;2022-11-24T00:34:34;10.60;99.90
30385;DHT22;17181;51.002;4.096;2022-11-24T00:37:00;10.60;99.90
30385;DHT22;17181;51.002;4.096;2022-11-24T00:39:26;10.70;99.90
30385;DHT22;17181;51.002;4.096;2022-11-24T00:41:52;10.60;99.90
30385;DHT22;17181;51.002;4.096;2022-11-24T00:44:18;10.70;99.90
30385;DHT22;17181;51.002;4.096;2022-11-24T00:46:43;10.70;99.90
30385;DHT22;17181;51.002;4.096;2022-11-24T00:49:09;10.70;99.90
30385;DHT22;17181;51.002;4.096;2022-11-24T00:51:35;10.70;99.90
30385;DHT22;17181;51.002;4.096;2022-11-24T00:54:01;10.70;99.90
30385;DHT22;17181;51.002;4.096;2022-11-24T00:56:28;10.70;99.90
30385;DHT22;17181;51.002;4.096;2022-11-24T00:58:54;10.70;99.90
30385;DHT22;17181;51.002;4.096;2022-11-24T01:01:23;10.70;99.90
30385;DHT22;17181;51.002;4.096;2022-11-24T01:03:49;10.80;99.90
30385;DHT22;17181;51.002;4.096;2022-11-24T01:06:21;10.80;99.90
30385;DHT22;17181;51.002;4.096;2022-11-24T01:08:47;10.80;99.90
30385;DHT22;17181;51.002;4.096;2022-11-24T01:11:30;10.80;99.90
30385;DHT22;17181;51.002;4.096;2022-11-24T01:14:15;10.80;99.90
30385;DHT22;17181;51.002;4.096;2022-11-24T01:16:41;10.80;99.90
30385;DHT22;17181;51.002;4.096;2022-11-24T01:19:07;10.80;99.90
30385;DHT22;17181;51.002;4.096;2022-11-24T01:21:32;10.80;99.90
30385;DHT22;17181;51.002;4.096;2022-11-24T01:23:58;10.80;99.90
30385;DHT22;17181;51.002;4.096;2022-11-24T01:26:24;10.80;99.90
30385;DHT22;17181;51.002;4.096;2022-11-24T01:28:55;10.80;99.90
30385;DHT22;17181;51.002;4.096;2022-11-24T01:31:21;10.90;99.90
30385;DHT22;17181;51.002;4.096;2022-11-24T01:33:47;10.80;99.90
30385;DHT22;17181;51.002;4.096;2022-11-24T01:36:13;10.80;99.90
30385;DHT22;17181;51.002;4.096;2022-11-24T01:38:39;10.80;99.90
30385;DHT22;17181;51.002;4.096;2022-11-24T01:43:32;10.90;99.90
30385;DHT22;17181;51.002;4.096;2022-11-24T01:46:48;10.90;99.90
30385;DHT22;17181;51.002;4.096;2022-11-24T01:48:56;10.90;99.90
30385;DHT22;17181;51.002;4.096;2022-11-24T01:51:25;10.90;99.90
30385;DHT22;17181;51.002;4.096;2022-11-24T01:54:00;11.00;99.90
30385;DHT22;17181;51.002;4.096;2022-11-24T01:56:27;11.00;99.90
30385;DHT22;17181;51.002;4.096;2022-11-24T01:58:57;10.90;99.90
30385;DHT22;17181;51.002;4.096;2022-11-24T02:01:24;10.90;99.90
30385;DHT22;17181;51.002;4.096;2022-11-24T02:03:51;10.90;99.90
30385;DHT22;17181;51.002;4.096;2022-11-24T02:06:21;10.90;99.90
30385;DHT22;17181;51.002;4.096;2022-11-24T02:09:08;10.90;99.90
30385;DHT22;17181;51.002;4.096;2022-11-24T02:11:38;10.90;99.90
30385;DHT22;17181;51.002;4.096;2022-11-24T02:14:10;10.90;99.90
30385;DHT22;17181;51.002;4.096;2022-11-24T02:16:38;10.90;99.90
30385;DHT22;17181;51.002;4.096;2022-11-24T02:21:55;11.10;99.90
30385;DHT22;17181;51.002;4.096;2022-11-24T02:26:57;11.10;99.90
30385;DHT22;17181;51.002;4.096;2022-11-24T02:29:23;11.00;99.90
30385;DHT22;17181;51.002;4.096;2022-11-24T02:31:57;10.90;99.90
30385;DHT22;17181;51.002;4.096;2022-11-24T02:34:24;10.70;99.90
30385;DHT22;17181;51.002;4.096;2022-11-24T02:36:49;10.50;99.90
30385;DHT22;17181;51.002;4.096;2022-11-24T02:39:15;10.20;99.90
30385;DHT22;17181;51.002;4.096;2022-11-24T02:41:52;10.20;99.90
30385;DHT22;17181;51.002;4.096;2022-11-24T02:44:19;10.00;99.90
30385;DHT22;17181;51.002;4.096;2022-11-24T02:46:46;9.80;99.90
30385;DHT22;17181;51.002;4.096;2022-11-24T02:49:12;9.80;99.90
30385;DHT22;17181;51.002;4.096;2022-11-24T02:51:37;9.70;99.90
30385;DHT22;17181;51.002;4.096;2022-11-24T02:54:03;9.60;99.90
30385;DHT22;17181;51.002;4.096;2022-11-24T02:56:29;9.60;99.90
30385;DHT22;17181;51.002;4.096;2022-11-24T02:58:55;9.50;99.90
30385;DHT22;17181;51.002;4.096;2022-11-24T03:01:20;9.50;99.90
30385;DHT22;17181;51.002;4.096;2022-11-24T03:03:47;9.50;99.90
30385;DHT22;17181;51.002;4.096;2022-11-24T03:06:13;9.50;99.90
30385;DHT22;17181;51.002;4.096;2022-11-24T03:08:38;9.50;99.90
30385;DHT22;17181;51.002;4.096;2022-11-24T03:11:04;9.50;99.90
30385;DHT22;17181;51.002;4.096;2022-11-24T03:13:30;9.50;99.90
30385;DHT22;17181;51.002;4.096;2022-11-24T03:15:56;9.40;99.90
30385;DHT22;17181;51.002;4.096;2022-11-24T03:18:22;9.40;99.90
30385;DHT22;17181;51.002;4.096;2022-11-24T03:20:47;9.40;99.90
30385;DHT22;17181;51.002;4.096;2022-11-24T03:23:14;9.40;99.90
30385;DHT22;17181;51.002;4.096;2022-11-24T03:25:39;9.40;99.90
30385;DHT22;17181;51.002;4.096;2022-11-24T03:28:05;9.40;99.90
30385;DHT22;17181;51.002;4.096;2022-11-24T03:30:31;9.40;99.90
30385;DHT22;17181;51.002;4.096;2022-11-24T03:32:57;9.40;99.90
30385;DHT22;17181;51.002;4.096;2022-11-24T03:35:23;9.40;99.90
30385;DHT22;17181;51.002;4.096;2022-11-24T03:37:50;9.40;99.90
30385;DHT22;17181;51.002;4.096;2022-11-24T03:40:16;9.40;99.90
30385;DHT22;17181;51.002;4.096;2022-11-24T03:42:42;9.30;99.90
30385;DHT22;17181;51.002;4.096;2022-11-24T03:45:08;9.30;99.90
30385;DHT22;17181;51.002;4.096;2022-11-24T03:47:34;9.30;99.90
30385;DHT22;17181;51.002;4.096;2022-11-24T03:50:00;9.40;99.90
30385;DHT22;17181;51.002;4.096;2022-11-24T03:52:25;9.40;99.90
30385;DHT22;17181;51.002;4.096;2022-11-24T03:54:52;9.40;99.90
30385;DHT22;17181;51.002;4.096;2022-11-24T03:57:18;9.40;99.90
30385;DHT22;17181;51.002;4.096;2022-11-24T03:59:44;9.40;99.90
30385;DHT22;17181;51.002;4.096;2022-11-24T04:02:09;9.50;99.90
30385;DHT22;17181;51.002;4.096;2022-11-24T04:04:35;9.50;99.90
30385;DHT22;17181;51.002;4.096;2022-11-24T04:07:01;9.50;99.90
30385;DHT22;17181;51.002;4.096;2022-11-24T04:09:27;9.50;99.90
30385;DHT22;17181;51.002;4.096;2022-11-24T04:11:52;9.50;99.90
30385;DHT22;17181;51.002;4.096;2022-11-24T04:14:37;9.60;99.90
30385;DHT22;17181;51.002;4.096;2022-11-24T04:17:05;9.60;99.90
30385;DHT22;17181;51.002;4.096;2022-11-24T04:19:31;9.60;99.90
30385;DHT22;17181;51.002;4.096;2022-11-24T04:21:57;9.60;99.90
30385;DHT22;17181;51.002;4.096;2022-11-24T04:24:23;9.60;99.90
30385;DHT22;17181;51.002;4.096;2022-11-24T04:26:48;9.60;99.90
30385;DHT22;17181;51.002;4.096;2022-11-24T04:29:14;9.60;99.90
30385;DHT22;17181;51.002;4.096;2022-11-24T04:31:40;9.60;99.90
30385;DHT22;17181;51.002;4.096;2022-11-24T04:34:06;9.60;99.90
30385;DHT22;17181;51.002;4.096;2022-11-24T04:36:32;9.60;99.90
30385;DHT22;17181;51.002;4.096;2022-11-24T04:38:57;9.70;99.90
30385;DHT22;17181;51.002;4.096;2022-11-24T04:41:23;9.60;99.90
30385;DHT22;17181;51.002;4.096;2022-11-24T04:43:49;9.60;99.90
30385;DHT22;17181;51.002;4.096;2022-11-24T04:46:15;9.60;99.90
30385;DHT22;17181;51.002;4.096;2022-11-24T04:48:41;9.60;99.90
30385;DHT22;17181;51.002;4.096;2022-11-24T04:51:07;9.70;99.90
30385;DHT22;17181;51.002;4.096;2022-11-24T04:53:33;9.60;99.90
30385;DHT22;17181;51.002;4.096;2022-11-24T04:56:02;9.60;99.90
30385;DHT22;17181;51.002;4.096;2022-11-24T04:58:28;9.60;99.90
30385;DHT22;17181;51.002;4.096;2022-11-24T05:00:54;9.60;99.90
30385;DHT22;17181;51.002;4.096;2022-11-24T05:03:19;9.60;99.90
30385;DHT22;17181;51.002;4.096;2022-11-24T05:05:45;9.60;99.90
30385;DHT22;17181;51.002;4.096;2022-11-24T05:08:11;9.60;99.90
30385;DHT22;17181;51.002;4.096;2022-11-24T05:10:36;9.60;99.90
30385;DHT22;17181;51.002;4.096;2022-11-24T05:13:05;9.60;99.90
30385;DHT22;17181;51.002;4.096;2022-11-24T05:15:31;9.60;99.90
30385;DHT22;17181;51.002;4.096;2022-11-24T05:17:57;9.60;99.90
30385;DHT22;17181;51.002;4.096;2022-11-24T05:20:23;9.60;99.90
30385;DHT22;17181;51.002;4.096;2022-11-24T05:22:49;9.60;99.90
30385;DHT22;17181;51.002;4.096;2022-11-24T05:25:15;9.60;99.90
30385;DHT22;17181;51.002;4.096;2022-11-24T05:27:41;9.60;99.90
30385;DHT22;17181;51.002;4.096;2022-11-24T05:30:08;9.60;99.90
30385;DHT22;17181;51.002;4.096;2022-11-24T05:32:34;9.60;99.90
30385;DHT22;17181;51.002;4.096;2022-11-24T05:35:00;9.60;99.90
30385;DHT22;17181;51.002;4.096;2022-11-24T05:37:27;9.60;99.90
30385;DHT22;17181;51.002;4.096;2022-11-24T05:39:53;9.60;99.90
30385;DHT22;17181;51.002;4.096;2022-11-24T05:42:19;9.60;99.90
30385;DHT22;17181;51.002;4.096;2022-11-24T05:45:04;9.60;99.90
30385;DHT22;17181;51.002;4.096;2022-11-24T05:47:30;9.50;99.90
30385;DHT22;17181;51.002;4.096;2022-11-24T05:49:56;9.50;99.90
30385;DHT22;17181;51.002;4.096;2022-11-24T05:52:22;9.50;99.90
30385;DHT22;17181;51.002;4.096;2022-11-24T05:54:48;9.50;99.90
30385;DHT22;17181;51.002;4.096;2022-11-24T05:57:16;9.50;99.90
30385;DHT22;17181;51.002;4.096;2022-11-24T05:59:42;9.50;99.90
30385;DHT22;17181;51.002;4.096;2022-11-24T06:02:08;9.40;99.90
30385;DHT22;17181;51.002;4.096;2022-11-24T06:04:35;9.40;99.90
30385;DHT22;17181;51.002;4.096;2022-11-24T06:07:01;9.40;99.90
30385;DHT22;17181;51.002;4.096;2022-11-24T06:09:28;9.30;99.90
30385;DHT22;17181;51.002;4.096;2022-11-24T06:11:54;9.30;99.90
30385;DHT22;17181;51.002;4.096;2022-11-24T06:14:20;9.30;99.90
30385;DHT22;17181;51.002;4.096;2022-11-24T06:16:46;9.30;99.90
30385;DHT22;17181;51.002;4.096;2022-11-24T06:19:12;9.30;99.90
30385;DHT22;17181;51.002;4.096;2022-11-24T06:21:38;9.30;99.90
30385;DHT22;17181;51.002;4.096;2022-11-24T06:24:04;9.30;99.90
30385;DHT22;17181;51.002;4.096;2022-11-24T06:26:30;9.30;99.90
30385;DHT22;17181;51.002;4.096;2022-11-24T06:28:56;9.30;99.90
30385;DHT22;17181;51.002;4.096;2022-11-24T06:31:22;9.30;99.90
30385;DHT22;17181;51.002;4.096;2022-11-24T06:33:47;9.30;99.90
30385;DHT22;17181;51.002;4.096;2022-11-24T06:36:14;9.20;99.90
30385;DHT22;17181;51.002;4.096;2022-11-24T06:38:40;9.20;99.90
30385;DHT22;17181;51.002;4.096;2022-11-24T06:41:08;9.20;99.90
30385;DHT22;17181;51.002;4.096;2022-11-24T06:43:34;9.20;99.90
30385;DHT22;17181;51.002;4.096;2022-11-24T06:46:00;9.20;99.90
30385;DHT22;17181;51.002;4.096;2022-11-24T06:48:26;9.10;99.90
30385;DHT22;17181;51.002;4.096;2022-11-24T06:50:53;9.10;99.90
30385;DHT22;17181;51.002;4.096;2022-11-24T06:53:18;9.10;99.90
30385;DHT22;17181;51.002;4.096;2022-11-24T06:55:45;9.10;99.90
30385;DHT22;17181;51.002;4.096;2022-11-24T06:58:11;9.10;99.90
30385;DHT22;17181;51.002;4.096;2022-11-24T07:00:37;9.10;99.90
30385;DHT22;17181;51.002;4.096;2022-11-24T07:03:04;9.10;99.90
30385;DHT22;17181;51.002;4.096;2022-11-24T07:05:29;9.10;99.90
30385;DHT22;17181;51.002;4.096;2022-11-24T07:07:57;9.00;99.90
30385;DHT22;17181;51.002;4.096;2022-11-24T07:10:23;9.00;99.90
30385;DHT22;17181;51.002;4.096;2022-11-24T07:12:49;9.00;99.90
30385;DHT22;17181;51.002;4.096;2022-11-24T07:15:15;9.00;99.90
30385;DHT22;17181;51.002;4.096;2022-11-24T07:17:40;9.00;99.90
30385;DHT22;17181;51.002;4.096;2022-11-24T07:20:07;9.00;99.90
30385;DHT22;17181;51.002;4.096;2022-11-24T07:22:34;9.00;99.90
30385;DHT22;17181;51.002;4.096;2022-11-24T07:24:59;9.00;99.90
30385;DHT22;17181;51.002;4.096;2022-11-24T07:27:28;9.00;99.90
30385;DHT22;17181;51.002;4.096;2022-11-24T07:29:54;9.00;99.90
30385;DHT22;17181;51.002;4.096;2022-11-24T07:32:20;9.00;99.90
30385;DHT22;17181;51.002;4.096;2022-11-24T07:34:46;9.00;99.90
30385;DHT22;17181;51.002;4.096;2022-11-24T07:37:12;8.90;99.90
30385;DHT22;17181;51.002;4.096;2022-11-24T07:39:38;8.90;99.90
30385;DHT22;17181;51.002;4.096;2022-11-24T07:42:03;8.90;99.90
30385;DHT22;17181;51.002;4.096;2022-11-24T07:44:30;8.90;99.90
30385;DHT22;17181;51.002;4.096;2022-11-24T07:46:55;8.90;99.90
30385;DHT22;17181;51.002;4.096;2022-11-24T07:49:21;8.90;99.90
30385;DHT22;17181;51.002;4.096;2022-11-24T07:51:47;9.00;99.90
30385;DHT22;17181;51.002;4.096;2022-11-24T07:54:13;9.00;99.90
30385;DHT22;17181;51.002;4.096;2022-11-24T07:56:38;9.00;99.90
30385;DHT22;17181;51.002;4.096;2022-11-24T07:59:04;9.00;99.90
30385;DHT22;17181;51.002;4.096;2022-11-24T08:01:30;9.00;99.90
30385;DHT22;17181;51.002;4.096;2022-11-24T08:03:55;9.00;99.90
30385;DHT22;17181;51.002;4.096;2022-11-24T08:06:21;9.00;99.90
30385;DHT22;17181;51.002;4.096;2022-11-24T08:08:47;9.00;99.90
30385;DHT22;17181;51.002;4.096;2022-11-24T08:11:15;9.00;99.90
30385;DHT22;17181;51.002;4.096;2022-11-24T08:13:42;9.00;99.90
30385;DHT22;17181;51.002;4.096;2022-11-24T08:16:10;9.00;99.90
30385;DHT22;17181;51.002;4.096;2022-11-24T08:18:37;9.10;99.90
30385;DHT22;17181;51.002;4.096;2022-11-24T08:21:03;9.10;99.90
30385;DHT22;17181;51.002;4.096;2022-11-24T08:23:30;9.10;99.90
30385;DHT22;17181;51.002;4.096;2022-11-24T08:25:56;9.20;99.90
30385;DHT22;17181;51.002;4.096;2022-11-24T08:28:25;9.20;99.90
30385;DHT22;17181;51.002;4.096;2022-11-24T08:30:50;9.20;99.90
30385;DHT22;17181;51.002;4.096;2022-11-24T08:33:16;9.20;99.90
30385;DHT22;17181;51.002;4.096;2022-11-24T08:35:42;9.20;99.90
30385;DHT22;17181;51.002;4.096;2022-11-24T08:38:08;9.20;99.90
30385;DHT22;17181;51.002;4.096;2022-11-24T08:40:34;9.30;99.90
30385;DHT22;17181;51.002;4.096;2022-11-24T08:43:00;9.30;99.90
30385;DHT22;17181;51.002;4.096;2022-11-24T08:45:27;9.30;99.90
30385;DHT22;17181;51.002;4.096;2022-11-24T08:47:53;9.40;99.90
30385;DHT22;17181;51.002;4.096;2022-11-24T08:50:23;9.40;99.90
30385;DHT22;17181;51.002;4.096;2022-11-24T08:52:51;9.40;99.90
30385;DHT22;17181;51.002;4.096;2022-11-24T08:55:17;9.50;99.90
30385;DHT22;17181;51.002;4.096;2022-11-24T08:57:43;9.50;99.90
30385;DHT22;17181;51.002;4.096;2022-11-24T09:00:09;9.60;99.90
30385;DHT22;17181;51.002;4.096;2022-11-24T09:02:35;9.60;99.90
30385;DHT22;17181;51.002;4.096;2022-11-24T09:05:01;9.60;99.90
30385;DHT22;17181;51.002;4.096;2022-11-24T09:07:27;9.70;99.90
30385;DHT22;17181;51.002;4.096;2022-11-24T09:09:53;9.70;99.90
30385;DHT22;17181;51.002;4.096;2022-11-24T09:12:19;9.70;99.90
30385;DHT22;17181;51.002;4.096;2022-11-24T09:14:44;9.80;99.90
30385;DHT22;17181;51.002;4.096;2022-11-24T09:17:10;9.80;99.90
30385;DHT22;17181;51.002;4.096;2022-11-24T09:19:36;9.90;99.90
30385;DHT22;17181;51.002;4.096;2022-11-24T09:22:02;9.90;99.90
30385;DHT22;17181;51.002;4.096;2022-11-24T09:24:28;9.90;99.90
30385;DHT22;17181;51.002;4.096;2022-11-24T09:26:54;9.90;99.90
30385;DHT22;17181;51.002;4.096;2022-11-24T09:29:20;10.00;99.90
30385;DHT22;17181;51.002;4.096;2022-11-24T09:31:46;10.10;99.90
30385;DHT22;17181;51.002;4.096;2022-11-24T09:34:13;10.10;99.90
30385;DHT22;17181;51.002;4.096;2022-11-24T09:36:40;10.20;99.90
30385;DHT22;17181;51.002;4.096;2022-11-24T09:39:06;10.20;99.90
30385;DHT22;17181;51.002;4.096;2022-11-24T09:50:25;10.40;99.90
30385;DHT22;17181;51.002;4.096;2022-11-24T09:53:02;10.50;99.90
30385;DHT22;17181;51.002;4.096;2022-11-24T10:00:53;10.60;99.90
30385;DHT22;17181;51.002;4.096;2022-11-24T10:03:40;10.70;99.90
30385;DHT22;17181;51.002;4.096;2022-11-24T10:12:37;10.90;99.90
30385;DHT22;17181;51.002;4.096;2022-11-24T10:15:22;10.90;99.90
30385;DHT22;17181;51.002;4.096;2022-11-24T10:24:07;11.10;99.90
30385;DHT22;17181;51.002;4.096;2022-11-24T10:26:49;11.20;99.90
30385;DHT22;17181;51.002;4.096;2022-11-24T10:29:33;11.20;99.90
30385;DHT22;17181;51.002;4.096;2022-11-24T10:32:06;11.30;99.90
30385;DHT22;17181;51.002;4.096;2022-11-24T10:34:47;11.30;99.90
30385;DHT22;17181;51.002;4.096;2022-11-24T10:37:25;11.30;99.90
30385;DHT22;17181;51.002;4.096;2022-11-24T10:42:34;11.50;99.90
30385;DHT22;17181;51.002;4.096;2022-11-24T10:47:39;11.60;99.90
30385;DHT22;17181;51.002;4.096;2022-11-24T10:50:25;11.60;99.90
30385;DHT22;17181;51.002;4.096;2022-11-24T10:53:28;11.70;99.90
30385;DHT22;17181;51.002;4.096;2022-11-24T11:00:50;11.80;99.90
30385;DHT22;17181;51.002;4.096;2022-11-24T11:03:25;11.80;99.90
30385;DHT22;17181;51.002;4.096;2022-11-24T11:08:28;11.90;99.90
30385;DHT22;17181;51.002;4.096;2022-11-24T11:11:34;11.90;99.90
30385;DHT22;17181;51.002;4.096;2022-11-24T11:14:04;11.90;99.90
30385;DHT22;17181;51.002;4.096;2022-11-24T11:16:34;12.00;99.90
30385;DHT22;17181;51.002;4.096;2022-11-24T11:21:46;12.00;99.90
30385;DHT22;17181;51.002;4.096;2022-11-24T11:24:14;12.00;99.90
30385;DHT22;17181;51.002;4.096;2022-11-24T11:26:42;12.10;99.90
30385;DHT22;17181;51.002;4.096;2022-11-24T11:31:38;12.20;99.90
30385;DHT22;17181;51.002;4.096;2022-11-24T11:34:13;12.20;99.90
30385;DHT22;17181;51.002;4.096;2022-11-24T11:36:47;12.30;99.90
30385;DHT22;17181;51.002;4.096;2022-11-24T11:39:31;12.40;99.90
30385;DHT22;17181;51.002;4.096;2022-11-24T11:49:46;12.50;99.90
30385;DHT22;17181;51.002;4.096;2022-11-24T12:15:19;12.90;99.90
30385;DHT22;17181;51.002;4.096;2022-11-24T12:20:43;12.90;99.90
30385;DHT22;17181;51.002;4.096;2022-11-24T12:30:55;13.00;99.90
30385;DHT22;17181;51.002;4.096;2022-11-24T12:36:04;13.10;99.90
30385;DHT22;17181;51.002;4.096;2022-11-24T12:43:57;13.20;99.90
30385;DHT22;17181;51.002;4.096;2022-11-24T12:49:29;13.20;99.90
30385;DHT22;17181;51.002;4.096;2022-11-24T12:52:31;13.20;99.90
30385;DHT22;17181;51.002;4.096;2022-11-24T12:54:59;13.30;99.90
30385;DHT22;17181;51.002;4.096;2022-11-24T12:57:53;13.30;99.90
30385;DHT22;17181;51.002;4.096;2022-11-24T13:00:33;13.30;99.90
30385;DHT22;17181;51.002;4.096;2022-11-24T13:06:08;13.40;99.90
30385;DHT22;17181;51.002;4.096;2022-11-24T13:08:36;13.40;99.90
30385;DHT22;17181;51.002;4.096;2022-11-24T13:14:05;13.50;99.90
30385;DHT22;17181;51.002;4.096;2022-11-24T13:16:33;13.50;99.90
30385;DHT22;17181;51.002;4.096;2022-11-24T13:19:13;13.50;99.90
30385;DHT22;17181;51.002;4.096;2022-11-24T13:26:43;13.60;99.90
30385;DHT22;17181;51.002;4.096;2022-11-24T13:29:35;13.60;99.90
30385;DHT22;17181;51.002;4.096;2022-11-24T13:39:58;13.50;99.90
30385;DHT22;17181;51.002;4.096;2022-11-24T13:42:28;13.40;99.90
30385;DHT22;17181;51.002;4.096;2022-11-24T13:45:02;13.30;99.90
30385;DHT22;17181;51.002;4.096;2022-11-24T13:47:42;13.30;99.90
30385;DHT22;17181;51.002;4.096;2022-11-24T14:01:26;13.20;99.90
30385;DHT22;17181;51.002;4.096;2022-11-24T14:12:20;13.50;99.90
30385;DHT22;17181;51.002;4.096;2022-11-24T14:14:48;13.60;99.90
30385;DHT22;17181;51.002;4.096;2022-11-24T14:17:25;13.70;99.90
30385;DHT22;17181;51.002;4.096;2022-11-24T14:19:56;13.80;99.90
30385;DHT22;17181;51.002;4.096;2022-11-24T14:22:52;14.00;99.90
30385;DHT22;17181;51.002;4.096;2022-11-24T14:25:29;14.10;99.90
30385;DHT22;17181;51.002;4.096;2022-11-24T14:27:55;14.20;99.90
30385;DHT22;17181;51.002;4.096;2022-11-24T14:30:23;14.20;99.90
30385;DHT22;17181;51.002;4.096;2022-11-24T14:33:02;14.20;99.90
30385;DHT22;17181;51.002;4.096;2022-11-24T14:35:34;14.10;99.90
30385;DHT22;17181;51.002;4.096;2022-11-24T14:38:02;14.00;99.90
30385;DHT22;17181;51.002;4.096;2022-11-24T14:43:25;13.70;99.90
30385;DHT22;17181;51.002;4.096;2022-11-24T14:45:59;13.60;99.90
30385;DHT22;17181;51.002;4.096;2022-11-24T14:48:36;13.40;99.90
30385;DHT22;17181;51.002;4.096;2022-11-24T14:51:12;13.30;99.90
30385;DHT22;17181;51.002;4.096;2022-11-24T14:53:44;13.20;99.90
30385;DHT22;17181;51.002;4.096;2022-11-24T14:58:52;13.00;99.90
30385;DHT22;17181;51.002;4.096;2022-11-24T15:01:38;12.90;99.90
30385;DHT22;17181;51.002;4.096;2022-11-24T15:04:17;12.80;99.90
30385;DHT22;17181;51.002;4.096;2022-11-24T15:06:45;12.80;99.90
30385;DHT22;17181;51.002;4.096;2022-11-24T15:12:17;12.80;99.90
30385;DHT22;17181;51.002;4.096;2022-11-24T15:14:51;12.70;99.90
30385;DHT22;17181;51.002;4.096;2022-11-24T15:17:22;12.70;99.90
30385;DHT22;17181;51.002;4.096;2022-11-24T15:19:53;12.80;99.90
30385;DHT22;17181;51.002;4.096;2022-11-24T15:22:35;12.90;99.90
30385;DHT22;17181;51.002;4.096;2022-11-24T15:25:02;13.00;99.90
30385;DHT22;17181;51.002;4.096;2022-11-24T15:27:49;13.00;99.90
30385;DHT22;17181;51.002;4.096;2022-11-24T15:30:15;13.00;99.90
30385;DHT22;17181;51.002;4.096;2022-11-24T15:32:49;12.90;99.90
30385;DHT22;17181;51.002;4.096;2022-11-24T15:35:15;12.90;99.90
30385;DHT22;17181;51.002;4.096;2022-11-24T15:37:41;12.70;99.90
30385;DHT22;17181;51.002;4.096;2022-11-24T15:40:09;12.70;99.90
30385;DHT22;17181;51.002;4.096;2022-11-24T15:42:35;12.70;99.90
30385;DHT22;17181;51.002;4.096;2022-11-24T15:45:00;12.60;99.90
30385;DHT22;17181;51.002;4.096;2022-11-24T15:47:26;12.50;99.90
30385;DHT22;17181;51.002;4.096;2022-11-24T15:49:52;12.40;99.90
30385;DHT22;17181;51.002;4.096;2022-11-24T15:52:18;12.40;99.90
30385;DHT22;17181;51.002;4.096;2022-11-24T15:54:49;12.30;99.90
30385;DHT22;17181;51.002;4.096;2022-11-24T15:57:16;12.20;99.90
30385;DHT22;17181;51.002;4.096;2022-11-24T15:59:41;12.20;99.90
30385;DHT22;17181;51.002;4.096;2022-11-24T16:02:08;12.10;99.90
30385;DHT22;17181;51.002;4.096;2022-11-24T16:04:34;12.10;99.90
30385;DHT22;17181;51.002;4.096;2022-11-24T16:06:59;12.00;99.90
30385;DHT22;17181;51.002;4.096;2022-11-24T16:09:25;11.90;99.90
30385;DHT22;17181;51.002;4.096;2022-11-24T16:11:51;11.90;99.90
30385;DHT22;17181;51.002;4.096;2022-11-24T16:14:17;11.90;99.90
30385;DHT22;17181;51.002;4.096;2022-11-24T16:16:43;11.80;99.90
30385;DHT22;17181;51.002;4.096;2022-11-24T16:19:09;11.80;99.90
30385;DHT22;17181;51.002;4.096;2022-11-24T16:21:35;11.80;99.90
30385;DHT22;17181;51.002;4.096;2022-11-24T16:24:01;11.80;99.90
30385;DHT22;17181;51.002;4.096;2022-11-24T16:26:26;11.70;99.90
30385;DHT22;17181;51.002;4.096;2022-11-24T16:28:52;11.70;99.90
30385;DHT22;17181;51.002;4.096;2022-11-24T16:31:18;11.70;99.90
30385;DHT22;17181;51.002;4.096;2022-11-24T16:33:44;11.60;99.90
30385;DHT22;17181;51.002;4.096;2022-11-24T16:36:11;11.60;99.90
30385;DHT22;17181;51.002;4.096;2022-11-24T16:38:37;11.60;99.90
30385;DHT22;17181;51.002;4.096;2022-11-24T16:41:03;11.60;99.90
30385;DHT22;17181;51.002;4.096;2022-11-24T16:43:29;11.60;99.90
30385;DHT22;17181;51.002;4.096;2022-11-24T16:48:43;11.50;99.90
30385;DHT22;17181;51.002;4.096;2022-11-24T16:51:10;11.40;99.90
30385;DHT22;17181;51.002;4.096;2022-11-24T16:53:36;11.40;99.90
30385;DHT22;17181;51.002;4.096;2022-11-24T16:56:02;11.40;99.90
30385;DHT22;17181;51.002;4.096;2022-11-24T16:58:28;11.40;99.90
30385;DHT22;17181;51.002;4.096;2022-11-24T17:00:53;11.30;99.90
30385;DHT22;17181;51.002;4.096;2022-11-24T17:03:19;11.30;99.90
30385;DHT22;17181;51.002;4.096;2022-11-24T17:05:59;11.30;99.90
30385;DHT22;17181;51.002;4.096;2022-11-24T17:08:25;11.30;99.90
30385;DHT22;17181;51.002;4.096;2022-11-24T17:10:51;11.30;99.90
30385;DHT22;17181;51.002;4.096;2022-11-24T17:13:17;11.20;99.90
30385;DHT22;17181;51.002;4.096;2022-11-24T17:15:42;11.30;99.90
30385;DHT22;17181;51.002;4.096;2022-11-24T17:18:08;11.20;99.90
30385;DHT22;17181;51.002;4.096;2022-11-24T17:20:34;11.20;99.90
30385;DHT22;17181;51.002;4.096;2022-11-24T17:23:00;11.20;99.90
30385;DHT22;17181;51.002;4.096;2022-11-24T17:25:26;11.20;99.90
30385;DHT22;17181;51.002;4.096;2022-11-24T17:27:52;11.20;99.90
30385;DHT22;17181;51.002;4.096;2022-11-24T17:30:18;11.20;99.90
30385;DHT22;17181;51.002;4.096;2022-11-24T17:32:44;11.10;99.90
30385;DHT22;17181;51.002;4.096;2022-11-24T17:35:10;11.10;99.90
30385;DHT22;17181;51.002;4.096;2022-11-24T17:37:36;11.10;99.90
30385;DHT22;17181;51.002;4.096;2022-11-24T17:40:02;11.10;99.90
30385;DHT22;17181;51.002;4.096;2022-11-24T17:42:28;11.10;99.90
30385;DHT22;17181;51.002;4.096;2022-11-24T17:44:54;11.00;99.90
30385;DHT22;17181;51.002;4.096;2022-11-24T17:47:20;11.00;99.90
30385;DHT22;17181;51.002;4.096;2022-11-24T17:49:46;11.00;99.90
30385;DHT22;17181;51.002;4.096;2022-11-24T17:52:11;11.00;99.90
30385;DHT22;17181;51.002;4.096;2022-11-24T17:54:37;11.00;99.90
30385;DHT22;17181;51.002;4.096;2022-11-24T17:57:03;11.00;99.90
30385;DHT22;17181;51.002;4.096;2022-11-24T17:59:28;11.00;99.90
30385;DHT22;17181;51.002;4.096;2022-11-24T18:01:54;10.90;99.90
30385;DHT22;17181;51.002;4.096;2022-11-24T18:04:20;10.90;99.90
30385;DHT22;17181;51.002;4.096;2022-11-24T18:06:46;10.90;99.90
30385;DHT22;17181;51.002;4.096;2022-11-24T18:09:12;10.90;99.90
30385;DHT22;17181;51.002;4.096;2022-11-24T18:11:37;10.90;99.90
30385;DHT22;17181;51.002;4.096;2022-11-24T18:14:03;10.90;99.90
30385;DHT22;17181;51.002;4.096;2022-11-24T18:16:31;10.90;99.90
30385;DHT22;17181;51.002;4.096;2022-11-24T18:18:59;10.90;99.90